createdAt,value
2022-09-01T00:02:46.116Z,1.45
2022-09-01T00:05:51.080Z,1.27
2022-09-01T00:08:55.487Z,1.20
2022-09-01T00:11:57.847Z,1.10
2022-09-01T00:15:00.080Z,1.70
2022-09-01T00:18:02.493Z,1.12
2022-09-01T00:21:04.816Z,1.15
2022-09-01T00:24:08.229Z,1.30
2022-09-01T00:27:10.602Z,1.52
2022-09-01T00:30:13.051Z,1.20
2022-09-01T00:33:15.292Z,1.58
2022-09-01T00:36:18.566Z,1.70
2022-09-01T00:39:20.834Z,1.37
2022-09-01T00:42:23.595Z,1.58
2022-09-01T00:45:26.121Z,1.50
2022-09-01T00:48:28.366Z,1.95
2022-09-01T00:51:31.614Z,1.50
2022-09-01T00:54:36.783Z,1.80
2022-09-01T00:57:39.757Z,1.50
2022-09-01T01:00:42.679Z,1.60
2022-09-01T01:03:46.976Z,2.25
2022-09-01T01:07:02.844Z,1.75
2022-09-01T01:10:12.011Z,1.62
2022-09-01T01:13:17.310Z,2.03
2022-09-01T01:16:19.633Z,2.00
2022-09-01T01:19:57.528Z,1.75
2022-09-01T01:23:19.621Z,1.48
2022-09-01T01:26:21.842Z,1.55
2022-09-01T01:29:24.161Z,1.30
2022-09-01T01:32:26.544Z,1.83
2022-09-01T01:35:29.693Z,1.60
2022-09-01T01:38:31.895Z,1.60
2022-09-01T01:41:35.557Z,1.77
2022-09-01T01:44:38.502Z,1.65
2022-09-01T01:47:40.770Z,1.50
2022-09-01T01:50:43.067Z,2.00
2022-09-01T01:53:45.315Z,1.73
2022-09-01T01:56:47.571Z,1.98
2022-09-01T01:59:49.922Z,1.55
2022-09-01T02:02:52.977Z,1.35
2022-09-01T02:05:56.532Z,1.50
2022-09-01T02:08:59.128Z,3.08
2022-09-01T02:12:01.374Z,1.85
2022-09-01T02:15:03.864Z,2.17
2022-09-01T02:18:06.610Z,1.40
2022-09-01T02:21:16.297Z,1.70
2022-09-01T02:24:22.237Z,1.50
2022-09-01T02:27:25.948Z,2.05
2022-09-01T02:30:29.196Z,1.55
2022-09-01T02:33:32.433Z,1.87
2022-09-01T02:36:35.247Z,1.70
2022-09-01T02:39:37.534Z,1.67
2022-09-01T02:42:42.767Z,1.50
2022-09-01T02:45:47.075Z,1.90
2022-09-01T02:48:51.441Z,2.35
2022-09-01T02:51:58.041Z,2.53
2022-09-01T02:55:00.620Z,1.73
2022-09-01T02:58:03.459Z,2.05
2022-09-01T03:01:08.403Z,1.85
2022-09-01T03:04:12.707Z,1.70
2022-09-01T03:07:18.396Z,2.03
2022-09-01T03:10:22.014Z,1.67
2022-09-01T03:13:27.424Z,1.70
2022-09-01T03:16:33.376Z,1.80
2022-09-01T03:19:42.819Z,1.92
2022-09-01T03:22:45.237Z,1.52
2022-09-01T03:25:49.356Z,1.95
2022-09-01T03:28:52.345Z,2.20
2022-09-01T03:31:54.657Z,2.30
2022-09-01T03:34:57.265Z,2.00
2022-09-01T03:38:00.974Z,1.95
2022-09-01T03:41:06.105Z,1.83
2022-09-01T03:44:12.120Z,2.10
2022-09-01T03:47:15.405Z,1.85
2022-09-01T03:50:22.868Z,2.12
2022-09-01T03:53:27.403Z,2.10
2022-09-01T03:56:30.063Z,2.10
2022-09-01T03:59:32.961Z,2.45
2022-09-01T04:02:35.432Z,2.45
2022-09-01T04:05:38.815Z,2.42
2022-09-01T04:08:41.179Z,1.90
2022-09-01T04:11:46.412Z,2.50
2022-09-01T04:14:48.744Z,2.20
2022-09-01T04:18:20.369Z,2.40
2022-09-01T04:21:22.747Z,2.30
2022-09-01T04:24:28.043Z,2.40
2022-09-01T04:27:30.268Z,2.10
2022-09-01T04:30:33.716Z,2.83
2022-09-01T04:33:39.908Z,2.00
2022-09-01T04:36:44.810Z,2.12
2022-09-01T04:39:55.603Z,2.10
2022-09-01T04:42:58.681Z,2.00
2022-09-01T04:46:03.361Z,1.95
2022-09-01T04:49:12.974Z,1.92
2022-09-01T04:52:15.710Z,2.85
2022-09-01T04:55:18.249Z,1.92
2022-09-01T04:58:22.210Z,2.30
2022-09-01T05:01:26.381Z,2.10
2022-09-01T05:04:33.885Z,1.87
2022-09-01T05:07:38.023Z,2.10
2022-09-01T05:10:45.435Z,1.70
2022-09-01T05:13:49.276Z,2.15
2022-09-01T05:16:57.135Z,3.58
2022-09-01T05:19:59.896Z,2.35
2022-09-01T05:23:02.447Z,2.47
2022-09-01T05:26:07.465Z,2.42
2022-09-01T05:29:17.849Z,2.05
2022-09-01T05:32:21.957Z,1.87
2022-09-01T05:35:33.087Z,2.17
2022-09-01T05:38:35.454Z,1.70
2022-09-01T05:41:41.593Z,2.10
2022-09-01T05:44:45.056Z,2.50
2022-09-01T05:47:48.009Z,1.80
2022-09-01T05:50:56.243Z,2.00
2022-09-01T05:54:02.067Z,1.87
2022-09-01T05:57:23.773Z,1.90
2022-09-01T06:00:34.771Z,1.60
2022-09-01T06:03:38.545Z,2.20
2022-09-01T06:07:05.695Z,1.58
2022-09-01T06:10:09.516Z,1.73
2022-09-01T06:13:14.347Z,2.22
2022-09-01T06:16:18.146Z,1.80
2022-09-01T06:19:20.903Z,2.00
2022-09-01T06:22:24.129Z,2.08
2022-09-01T06:25:30.665Z,2.40
2022-09-01T06:28:32.916Z,2.00
2022-09-01T06:31:39.423Z,1.65
2022-09-01T06:34:44.566Z,1.60
2022-09-01T06:37:47.261Z,1.70
2022-09-01T06:40:54.889Z,2.00
2022-09-01T06:43:57.833Z,1.80
2022-09-01T06:47:00.288Z,1.75
2022-09-01T06:50:03.773Z,1.50
2022-09-01T06:56:44.637Z,1.58
2022-09-01T06:59:47.982Z,1.85
2022-09-01T07:02:57.248Z,2.08
2022-09-01T07:06:01.405Z,2.45
2022-09-01T07:09:21.640Z,1.70
2022-09-01T07:12:27.566Z,1.62
2022-09-01T07:18:59.067Z,1.85
2022-09-01T07:22:08.610Z,2.17
2022-09-01T07:25:12.835Z,1.90
2022-09-01T07:28:37.898Z,1.60
2022-09-01T07:31:52.204Z,2.28
2022-09-01T07:35:11.936Z,1.60
2022-09-01T07:49:02.624Z,1.70
2022-09-01T07:51:53.044Z,1.83
2022-09-01T07:54:56.018Z,1.70
2022-09-01T07:57:58.663Z,1.65
2022-09-01T08:01:04.238Z,1.50
2022-09-01T08:04:06.605Z,1.77
2022-09-01T08:07:15.540Z,1.58
2022-09-01T08:10:20.260Z,1.73
2022-09-01T08:13:22.735Z,1.70
2022-09-01T08:16:39.214Z,1.77
2022-09-01T08:19:44.021Z,2.08
2022-09-01T08:22:46.285Z,1.60
2022-09-01T08:25:50.695Z,1.40
2022-09-01T08:28:55.726Z,1.73
2022-09-01T08:31:59.245Z,1.42
2022-09-01T08:35:01.852Z,1.70
2022-09-01T08:38:04.100Z,1.58
2022-09-01T08:41:16.090Z,2.08
2022-09-01T08:44:38.186Z,1.60
2022-09-01T08:48:04.614Z,1.50
2022-09-01T08:51:40.531Z,1.55
2022-09-01T08:54:47.469Z,1.40
2022-09-01T08:57:54.841Z,1.67
2022-09-01T09:01:04.985Z,1.50
2022-09-01T09:04:33.881Z,1.58
2022-09-01T09:08:06.879Z,1.77
2022-09-01T09:11:28.384Z,1.30
2022-09-01T09:14:49.145Z,1.90
2022-09-01T09:18:00.265Z,1.45
2022-09-01T09:21:10.712Z,1.60
2022-09-01T09:24:52.353Z,1.65
2022-09-01T09:28:02.004Z,1.40
2022-09-01T09:31:26.073Z,1.85
2022-09-01T09:34:39.551Z,1.50
2022-09-01T09:37:41.788Z,1.52
2022-09-01T09:41:17.915Z,1.92
2022-09-01T09:44:31.904Z,1.45
2022-09-01T09:47:45.805Z,1.80
2022-09-01T09:50:48.064Z,1.25
2022-09-01T09:53:52.393Z,1.20
2022-09-01T09:57:14.644Z,1.48
2022-09-01T10:00:35.739Z,1.20
2022-09-01T10:03:49.148Z,1.10
2022-09-01T10:06:54.350Z,0.90
2022-09-01T10:10:00.511Z,0.90
2022-09-01T10:13:03.834Z,1.25
2022-09-01T10:16:21.953Z,1.10
2022-09-01T10:19:25.220Z,1.10
2022-09-01T10:22:27.817Z,1.20
2022-09-01T10:25:33.222Z,2.08
2022-09-01T10:28:49.959Z,1.00
2022-09-01T10:32:27.994Z,1.00
2022-09-01T10:35:26.948Z,0.95
2022-09-01T10:38:30.089Z,0.88
2022-09-01T10:42:00.435Z,0.73
2022-09-01T10:45:03.902Z,0.80
2022-09-01T10:48:51.931Z,0.88
2022-09-01T10:51:51.435Z,0.90
2022-09-01T10:54:56.733Z,1.00
2022-09-01T10:58:09.416Z,0.88
2022-09-01T11:01:49.000Z,1.08
2022-09-01T11:04:51.839Z,0.93
2022-09-01T11:08:14.270Z,0.70
2022-09-01T11:11:48.644Z,0.80
2022-09-01T11:14:54.307Z,0.70
2022-09-01T11:17:58.110Z,0.80
2022-09-01T11:21:26.881Z,0.90
2022-09-01T11:24:50.854Z,0.70
2022-09-01T11:28:03.135Z,0.80
2022-09-01T11:31:11.207Z,0.90
2022-09-01T11:34:20.161Z,1.23
2022-09-01T11:37:27.471Z,0.70
2022-09-01T11:40:33.039Z,0.82
2022-09-01T11:43:36.159Z,0.70
2022-09-01T11:46:39.089Z,1.20
2022-09-01T11:49:50.043Z,0.82
2022-09-01T11:53:04.029Z,0.70
2022-09-01T11:56:16.946Z,0.80
2022-09-01T11:59:35.519Z,0.70
2022-09-01T12:02:54.964Z,0.90
2022-09-01T12:06:04.038Z,0.70
2022-09-01T12:09:06.458Z,0.60
2022-09-01T12:12:33.379Z,1.00
2022-09-01T12:15:54.974Z,0.50
2022-09-01T12:19:04.237Z,0.90
2022-09-01T12:22:17.247Z,0.82
2022-09-01T12:25:22.971Z,0.55
2022-09-01T12:28:31.031Z,0.70
2022-09-01T12:31:35.067Z,0.80
2022-09-01T12:34:42.158Z,0.80
2022-09-01T12:37:44.408Z,0.70
2022-09-01T12:40:54.434Z,0.70
2022-09-01T12:43:56.692Z,0.70
2022-09-01T12:47:04.104Z,0.60
2022-09-01T12:50:06.376Z,0.60
2022-09-01T12:53:15.610Z,0.70
2022-09-01T12:56:26.709Z,0.93
2022-09-01T13:02:43.091Z,0.73
2022-09-01T13:05:53.215Z,0.60
2022-09-01T13:08:56.759Z,0.50
2022-09-01T13:12:20.401Z,0.73
2022-09-01T13:15:22.858Z,0.50
2022-09-01T13:18:26.306Z,0.70
2022-09-01T13:21:29.086Z,0.50
2022-09-01T13:24:32.048Z,0.60
2022-09-01T13:27:34.406Z,0.75
2022-09-01T13:30:36.925Z,0.75
2022-09-01T13:37:01.539Z,0.60
2022-09-01T13:40:06.422Z,0.40
2022-09-01T13:43:09.106Z,0.60
2022-09-01T13:46:11.629Z,0.62
2022-09-01T13:52:36.453Z,1.05
2022-09-01T13:55:40.057Z,0.62
2022-09-01T13:58:42.293Z,0.70
2022-09-01T14:01:44.606Z,0.75
2022-09-01T14:04:46.911Z,1.12
2022-09-01T14:07:49.770Z,0.50
2022-09-01T14:10:53.254Z,0.80
2022-09-01T14:13:55.536Z,0.90
2022-09-01T14:16:57.771Z,0.50
2022-09-01T14:20:00.035Z,0.70
2022-09-01T14:23:04.403Z,0.70
2022-09-01T14:26:11.651Z,0.50
2022-09-01T14:29:13.898Z,0.60
2022-09-01T14:32:17.330Z,0.60
2022-09-01T14:35:24.866Z,0.80
2022-09-01T14:38:27.098Z,1.05
2022-09-01T14:41:29.371Z,0.60
2022-09-01T14:44:33.662Z,0.93
2022-09-01T14:47:36.512Z,0.65
2022-09-01T14:50:43.983Z,1.12
2022-09-01T14:53:46.372Z,0.60
2022-09-01T15:00:12.506Z,0.52
2022-09-01T15:03:17.251Z,0.88
2022-09-01T15:06:22.731Z,0.70
2022-09-01T15:09:25.075Z,0.50
2022-09-01T15:12:31.069Z,0.60
2022-09-01T15:15:33.455Z,0.60
2022-09-01T15:18:35.721Z,0.80
2022-09-01T15:21:39.492Z,0.60
2022-09-01T15:24:41.957Z,0.60
2022-09-01T15:27:44.225Z,0.60
2022-09-01T15:30:46.860Z,0.70
2022-09-01T15:33:49.168Z,0.52
2022-09-01T15:36:51.431Z,0.60
2022-09-01T15:39:53.632Z,0.50
2022-09-01T15:42:56.873Z,0.90
2022-09-01T15:46:00.603Z,0.60
2022-09-01T15:49:05.934Z,1.10
2022-09-01T15:52:08.161Z,0.82
2022-09-01T15:55:10.410Z,0.62
2022-09-01T15:58:15.163Z,0.88
2022-09-01T16:01:18.940Z,0.60
2022-09-01T16:04:26.901Z,0.60
2022-09-01T16:07:29.824Z,0.73
2022-09-01T16:10:33.698Z,0.70
2022-09-01T16:13:40.501Z,0.95
2022-09-01T16:17:07.740Z,0.60
2022-09-01T16:20:14.736Z,0.60
2022-09-01T16:23:23.695Z,1.05
2022-09-01T16:26:25.907Z,2.45
2022-09-01T16:29:45.243Z,1.27
2022-09-01T16:32:48.442Z,0.70
2022-09-01T16:36:15.410Z,0.95
2022-09-01T16:39:47.150Z,1.10
2022-09-01T16:43:16.325Z,1.10
2022-09-01T16:46:32.118Z,0.90
2022-09-01T16:49:44.658Z,0.80
2022-09-01T16:53:24.329Z,1.02
2022-09-01T16:56:32.393Z,1.10
2022-09-01T16:59:44.326Z,1.70
2022-09-01T17:02:46.838Z,0.90
2022-09-01T17:06:03.648Z,0.90
2022-09-01T17:09:16.551Z,0.90
2022-09-01T17:12:33.245Z,1.05
2022-09-01T17:15:41.103Z,1.00
2022-09-01T17:18:50.320Z,1.30
2022-09-01T17:22:06.206Z,1.45
2022-09-01T17:25:12.810Z,1.55
2022-09-01T17:28:22.922Z,1.55
2022-09-01T17:31:35.007Z,1.02
2022-09-01T17:34:40.713Z,1.20
2022-09-01T17:38:01.569Z,1.33
2022-09-01T17:41:23.263Z,1.23
2022-09-01T17:44:51.402Z,2.20
2022-09-01T17:48:06.206Z,1.42
2022-09-01T17:51:44.987Z,1.35
2022-09-01T17:54:57.078Z,1.30
2022-09-01T17:58:18.989Z,1.20
2022-09-01T18:01:51.708Z,1.23
2022-09-01T18:05:12.596Z,1.58
2022-09-01T18:08:41.934Z,1.20
2022-09-01T18:11:51.878Z,1.00
2022-09-01T18:14:53.992Z,1.40
2022-09-01T18:18:35.350Z,1.10
2022-09-01T18:21:46.298Z,1.30
2022-09-01T18:25:08.532Z,1.15
2022-09-01T18:28:10.844Z,1.10
2022-09-01T18:31:45.659Z,1.48
2022-09-01T18:35:13.392Z,1.45
2022-09-01T18:38:33.080Z,1.05
2022-09-01T18:41:49.162Z,1.08
2022-09-01T18:45:16.813Z,1.33
2022-09-01T18:49:01.069Z,1.17
2022-09-01T18:52:09.371Z,1.50
2022-09-01T18:55:48.777Z,1.35
2022-09-01T18:58:54.261Z,1.17
2022-09-01T19:02:04.087Z,1.55
2022-09-01T19:05:33.459Z,1.40
2022-09-01T19:08:45.053Z,1.52
2022-09-01T19:12:03.077Z,1.58
2022-09-01T19:15:20.724Z,1.17
2022-09-01T19:18:43.337Z,1.37
2022-09-01T19:21:47.029Z,2.20
2022-09-01T19:25:22.634Z,1.40
2022-09-01T19:28:33.705Z,1.48
2022-09-01T19:31:42.598Z,1.40
2022-09-01T19:34:58.855Z,1.73
2022-09-01T19:38:04.488Z,1.73
2022-09-01T19:41:15.539Z,1.20
2022-09-01T19:45:06.934Z,1.23
2022-09-01T19:51:45.435Z,1.40
2022-09-01T19:54:56.183Z,1.60
2022-09-01T19:58:10.595Z,1.27
2022-09-01T20:01:21.309Z,1.70
2022-09-01T20:04:24.396Z,1.60
2022-09-01T20:07:58.280Z,1.23
2022-09-01T20:11:38.674Z,1.40
2022-09-01T20:14:43.600Z,1.42
2022-09-01T20:17:52.667Z,1.40
2022-09-01T20:20:55.717Z,1.77
2022-09-01T20:24:09.663Z,1.30
2022-09-01T20:27:18.246Z,1.40
2022-09-01T20:30:23.533Z,1.50
2022-09-01T20:33:41.071Z,1.45
2022-09-01T20:36:46.911Z,1.33
2022-09-01T20:40:02.275Z,1.02
2022-09-01T20:43:27.961Z,1.50
2022-09-01T20:46:30.411Z,1.37
2022-09-01T20:49:38.383Z,1.08
2022-09-01T20:52:52.839Z,1.40
2022-09-01T20:56:06.750Z,1.27
2022-09-01T20:59:48.113Z,1.10
2022-09-01T21:03:01.769Z,0.98
2022-09-01T21:06:42.335Z,0.98
2022-09-01T21:09:56.645Z,1.98
2022-09-01T21:13:25.416Z,1.15
2022-09-01T21:16:40.758Z,1.00
2022-09-01T21:19:49.744Z,1.00
2022-09-01T21:22:52.428Z,1.20
2022-09-01T21:25:54.992Z,0.85
2022-09-01T21:28:58.764Z,0.90
2022-09-01T21:32:01.137Z,0.80
2022-09-01T21:35:05.033Z,0.77
2022-09-01T21:38:07.264Z,1.45
2022-09-01T21:41:12.979Z,1.00
2022-09-01T21:44:15.699Z,0.90
2022-09-01T21:47:18.135Z,0.95
2022-09-01T21:50:22.421Z,0.90
2022-09-01T21:53:24.631Z,0.93
2022-09-01T21:56:27.099Z,0.90
2022-09-01T21:59:29.454Z,0.80
2022-09-01T22:02:32.972Z,0.95
2022-09-01T22:05:36.703Z,1.40
2022-09-01T22:08:39.598Z,1.05
2022-09-01T22:11:44.109Z,1.98
2022-09-01T22:14:46.332Z,0.82
2022-09-01T22:17:49.031Z,1.10
2022-09-01T22:20:51.267Z,0.80
2022-09-01T22:23:53.616Z,1.08
2022-09-01T22:26:55.959Z,0.70
2022-09-01T22:29:58.194Z,1.05
2022-09-01T22:33:01.483Z,0.80
2022-09-01T22:36:03.762Z,1.55
2022-09-01T22:39:07.749Z,0.70
2022-09-01T22:42:10.180Z,0.90
2022-09-01T22:45:14.192Z,0.80
2022-09-01T22:48:18.247Z,0.60
2022-09-01T22:51:20.864Z,0.80
2022-09-01T22:54:24.148Z,0.85
2022-09-01T22:57:26.441Z,0.62
2022-09-01T23:00:28.707Z,0.77
2022-09-01T23:03:30.934Z,0.80
2022-09-01T23:06:34.741Z,0.80
2022-09-01T23:09:37.503Z,0.90
2022-09-01T23:12:39.741Z,0.77
2022-09-01T23:15:41.940Z,0.90
2022-09-01T23:18:46.107Z,0.90
2022-09-01T23:21:48.793Z,0.80
2022-09-01T23:24:51.121Z,0.80
2022-09-01T23:27:54.268Z,0.70
2022-09-01T23:30:57.171Z,1.05
2022-09-01T23:33:59.421Z,2.17
2022-09-01T23:37:01.687Z,1.05
2022-09-01T23:40:06.530Z,1.58
2022-09-01T23:43:09.036Z,0.75
2022-09-01T23:46:19.870Z,0.75
2022-09-01T23:49:22.248Z,0.95
2022-09-01T23:52:24.463Z,0.95
2022-09-01T23:55:26.889Z,0.80
2022-09-01T23:58:31.850Z,0.93
